METAR - Ísland

Uppfært síðast 27.10.2021 - kl. 07:52

SIGMET síðustu 6 klst.

Engin SIGMET skeyti bárust síðustu 6 klst.

METAR síðustu 3 klst

Frá og með 1. október munu brautarskilyrði ekki birtast í METAR skeytum.
Í staðinn mun ISAVIA gefa út SNOWTAM á síðunni SNOWTAM | Isavia.

Flugv.TímiSkeyti
BIAR2021-10-27 07.00METAR BIAR 270700Z 30009KT 6000 RA BKN015 OVC021 03/02 Q0984
BIAR2021-10-27 06.00METAR BIAR 270600Z 32008KT 9999 -RA FEW017 SCT022 OVC027 03/01 Q0984
BIAR2021-10-27 05.00METAR BIAR 270500Z 30010KT 6000 -RA FEW017 OVC020 03/01 Q0984
BIEG2021-10-27 07.00METAR BIEG 270700Z 36015G25KT 9999 BKN022 OVC027 04/04 Q0980
BIEG2021-10-27 06.00METAR BIEG 270600Z 36017G31KT 9999 DZ BKN022 OVC030 04/03 Q0980
BIEG2021-10-27 05.00METAR BIEG 270500Z 36016KT 9999 -SHRA BKN026 OVC034 04/03 Q0980
BIHU2021-10-27 07.00METAR BIHU 270700Z 34008KT 9999 RA OVC020 03/02 Q0984
BIHU2021-10-27 06.00METAR BIHU 270600Z 34008KT 9999 -RA SCT015 OVC020 03/02 Q0984
BIIS2021-10-27 07.00METAR BIIS 270700Z 03019KT 9999 OVC021 05/02 Q0985
BIKF2021-10-27 07.30METAR BIKF 270730Z 08009KT 9999 VCSH FEW012 BKN028 BKN042 05/03 Q0979
BIKF2021-10-27 07.00METAR BIKF 270700Z 09008KT 070V130 9999 -RA FEW010 BKN028 BKN042 05/03 Q0978
BIKF2021-10-27 06.30METAR BIKF 270630Z 08007KT 9999 VCSH FEW010 BKN028 BKN042 05/03 Q0978
BIKF2021-10-27 06.00METAR BIKF 270600Z 12015KT 9999 -RA SCT010 BKN028 BKN042 05/03 Q0978
BIKF2021-10-27 05.30METAR BIKF 270530Z 13008KT 9999 VCSH FEW010 BKN023 BKN055 06/03 Q0977
BIKF2021-10-27 05.00METAR BIKF 270500Z 14011KT 9999 -RA SCT010 BKN018 OVC037 06/04 Q0977
BIRK2021-10-27 07.00METAR BIRK 270700Z 07008KT 9999 VCSH SCT028 BKN056 05/02 Q0979
BIRK2021-10-27 06.00METAR BIRK 270600Z 08009KT 9999 VCSH FEW031 SCT036 BKN060 05/02 Q0979
BIRK2021-10-27 05.00METAR BIRK 270500Z 10007KT 9999 VCSH FEW033 SCT040 BKN059 05/02 Q0978
BIVO2021-10-27 07.00METAR BIVO 270700Z 04024KT 9999 SCT007 OVC010 05/05 Q0982

Textaspár eru skrifaðar af vakthafandi veðurfræðingi á Veðurstofu Íslands.




Aðrir tengdir vefir



Þetta vefsvæði byggir á Eplica